クアラルンプール国際空港の過去48時間の天気

クアラルンプール国際空港 (Sepang/KL International Airport)

現在時刻: 12/1 04:57 +08 (11/30 20:57 UTC) 以下の時間は現地時間です。

過去48時間のMETAR気象情報
時間 風向 風速(m/s) 視程 気温(℃) 湿度(%) 気圧(hPa) 天気現象
1 04:30 不定 1 9000m 26 89 1008
1 04:00 静穏 0 9000m 26 94 1009
1 03:30 静穏 0 9000m 25 94 1009
1 03:00 不定 1 9000m 25 94 1009
1 02:30 不定 2 10km以上 25 94 1010
1 02:00 不定 1 10km以上 26 89 1010
1 01:30 不定 1 10km以上 26 89 1010
1 01:00 静穏 0 10km以上 26 89 1010
1 00:30 静穏 0 10km以上 26 94 1010
1 00:00 不定 2 10km以上 26 89 1010
30 23:30 不定 2 10km以上 26 89 1010
30 23:00 静穏 0 10km以上 26 94 1010
30 22:30 静穏 0 10km以上 26 94 1010
30 22:00 静穏 0 10km以上 27 89 1010
30 21:30 静穏 0 10km以上 27 89 1009
30 21:00 静穏 0 10km以上 27 89 1009
30 20:30 不定 1 10km以上 27 89 1008
30 20:00 静穏 0 10km以上 27 89 1008
30 19:30 不定 1 10km以上 27 89 1007
30 19:00 不定 1 10km以上 28 79 1007
30 18:30 不定 1 10km以上 28 79 1006
30 18:00 不定 1 10km以上 29 79 1006
30 17:30 南西 2 10km以上 30 70 1006
30 17:00 南西 2 10km以上 31 66 1006
30 16:30 南南西 2 10km以上 31 66 1006
30 16:00 南南西 2 10km以上 31 66 1006
30 15:30 3 10km以上 31 70 1006
30 15:00 不定 2 10km以上 31 70 1007
30 14:30 不定 2 10km以上 31 70 1007
30 14:00 不定 1 10km以上 30 75 1008
30 13:30 静穏 0 10km以上 28 84 1009
30 13:00 不定 1 10km以上 28 84 1009
30 12:30 不定 1 10km以上 27 89 1010
30 12:00 不定 2 9000m 26 94 1010 弱い雨
30 11:30 不定 1 9000m 26 94 1011 弱い雨
30 11:00 不定 1 9000m 26 89 1011 弱い雨
30 10:30 不定 1 8000m 25 100 1011 弱い雷雨
30 10:00 不定 1 7000m 24 100 1011 弱い雷雨
30 09:30 不定 1 4000m 24 100 1011 雷雨
30 09:00 不定 1 1500m 24 100 1011 強い雷雨
30 08:42 西南西 2 1500m 24 100 1011 強い雷雨
30 08:30 不定 2 4000m 24 100 1010 雷雨
30 08:17 南南西 2 4000m 24 100 1010 雷雨
30 08:00 西南西 2 9000m 25 94 1009 弱い雷雨
30 07:30 不定 1 10km以上 26 89 1009
30 07:00 静穏 0 9000m 26 89 1008
30 06:30 不定 1 9000m 26 89 1008
30 06:07 不定 1 10km以上 26 89 1008
30 06:00 不定 1 9000m 26 89 1007
30 05:30 不定 1 9000m 26 89 1008
30 05:00 静穏 0 9000m 26 89 1008
30 04:30 不定 1 9000m 26 89 1008
30 04:00 不定 1 10km以上 26 89 1008
30 03:30 不定 2 10km以上 26 89 1009
30 03:00 北北東 2 9000m 27 84 1009
30 02:30 北北東 2 9000m 27 84 1009
30 02:00 北北東 2 9000m 26 94 1009
30 01:30 静穏 0 9000m 27 89 1009
30 01:00 不定 1 9000m 26 94 1010
30 00:30 静穏 0 9000m 27 89 1010
30 00:00 静穏 0 9000m 27 89 1010
29 23:30 静穏 0 9000m 27 89 1010
29 23:00 不定 1 9000m 27 84 1010
29 22:30 静穏 0 9000m 27 89 1010
29 22:00 静穏 0 9000m 27 89 1010
29 21:30 静穏 0 9000m 27 84 1009
29 21:00 静穏 0 9000m 27 89 1009
29 20:30 不定 1 9000m 27 84 1008
29 20:00 西南西 2 10km以上 28 84 1008
29 19:30 不定 1 10km以上 28 79 1008
29 19:00 不定 1 10km以上 28 84 1007
29 18:30 静穏 0 10km以上 30 70 1007
29 18:00 2 10km以上 31 62 1006
29 17:30 北東 2 10km以上 31 66 1006
29 17:00 北東 2 10km以上 31 62 1006
29 16:30 北東 2 10km以上 31 66 1006
29 16:00 不定 2 10km以上 31 66 1006
29 15:30 不定 1 10km以上 32 63 1007
29 15:00 不定 1 10km以上 31 62 1008
29 14:30 不定 2 10km以上 31 62 1008
29 14:00 不定 1 10km以上 31 62 1009
29 13:30 不定 2 10km以上 31 62 1009
29 13:00 不定 1 10km以上 31 62 1010
29 12:30 不定 2 10km以上 31 62 1010
29 12:00 不定 1 10km以上 30 62 1011
29 11:30 不定 1 10km以上 29 66 1011
29 11:00 静穏 0 10km以上 28 74 1011
29 10:30 不定 1 10km以上 27 79 1012
29 10:00 不定 1 10km以上 26 84 1012
29 09:30 静穏 0 10km以上 25 89 1011
29 09:00 北東 2 10km以上 25 89 1011
29 08:30 不定 2 10km以上 24 94 1011
29 08:00 東北東 2 10km以上 24 94 1010
29 07:30 不定 1 10km以上 24 94 1010
29 07:00 不定 2 10km以上 23 100 1009
29 06:30 不定 1 9000m 23 100 1009
29 06:00 不定 1 10km以上 23 100 1009
29 05:30 北北東 2 10km以上 23 100 1009
29 05:00 北北東 2 9000m 24 94 1009
WMKK 302030Z VRB02KT 9000 FEW008 FEW017CB SCT030 26/24 Q1008 TEMPO 2000 +TSRA
WMKK 302000Z 00000KT 9000 FEW008 FEW017CB SCT030 26/25 Q1009 NOSIG
WMKK 301930Z 00000KT 9000 FEW008 FEW017CB SCT030 25/24 Q1009 NOSIG
WMKK 301900Z VRB02KT 9000 FEW008 FEW017CB 25/24 Q1009 NOSIG
WMKK 301830Z VRB03KT 9999 FEW017CB 25/24 Q1010 NOSIG
WMKK 301800Z VRB01KT 9999 FEW017CB 26/24 Q1010 NOSIG
WMKK 301730Z VRB02KT 9999 FEW017CB 26/24 Q1010 NOSIG
WMKK 301700Z 00000KT 9999 FEW017CB 26/24 Q1010 NOSIG
WMKK 301630Z 00000KT 9999 FEW017CB 26/25 Q1010 NOSIG
WMKK 301600Z VRB03KT 9999 FEW017CB 26/24 Q1010 NOSIG
WMKK 301530Z VRB03KT 9999 FEW017CB 26/24 Q1010 NOSIG
WMKK 301500Z 00000KT 9999 FEW017CB 26/25 Q1010 NOSIG
WMKK 301430Z 00000KT 9999 FEW017CB 26/25 Q1010 NOSIG
WMKK 301400Z 00000KT 9999 FEW017CB 27/25 Q1010 NOSIG
WMKK 301330Z 00000KT 9999 FEW017CB 27/25 Q1009 NOSIG
WMKK 301300Z 00000KT 9999 FEW017CB 27/25 Q1009 NOSIG
WMKK 301230Z VRB01KT 9999 FEW017CB 27/25 Q1008 NOSIG
WMKK 301200Z 00000KT 9999 FEW030 27/25 Q1008 NOSIG
WMKK 301130Z VRB01KT 9999 FEW017CB 27/25 Q1007 NOSIG
WMKK 301100Z VRB02KT 9999 FEW018 28/24 Q1007 NOSIG
WMKK 301030Z VRB02KT 9999 FEW018 28/24 Q1006 NOSIG
WMKK 301000Z VRB02KT 9999 FEW018 29/25 Q1006 NOSIG
WMKK 300930Z 22003KT 150V290 9999 FEW018 30/24 Q1006 NOSIG
WMKK 300900Z 22003KT 160V300 9999 FEW018 31/24 Q1006 NOSIG
WMKK 300830Z 21004KT 160V300 9999 FEW017CB SCT018 31/24 Q1006 NOSIG
WMKK 300800Z 20004KT 120V290 9999 FEW017CB SCT018 31/24 Q1006 NOSIG
WMKK 300730Z VRB05KT 9999 FEW017CB SCT018 31/25 Q1006 NOSIG
WMKK 300700Z VRB04KT 9999 FEW017CB SCT018 31/25 Q1007 NOSIG
WMKK 300630Z VRB03KT 9999 FEW017CB SCT018 31/25 Q1007 NOSIG
WMKK 300600Z VRB02KT 9999 FEW018 30/25 Q1008 NOSIG
WMKK 300530Z 00000KT 9999 FEW018 28/25 Q1009 NOSIG
WMKK 300500Z VRB02KT 9999 FEW017CB 28/25 Q1009 NOSIG
WMKK 300430Z VRB01KT 9999 FEW010 FEW017CB 27/25 Q1010 NOSIG
WMKK 300400Z VRB03KT 9000 -RA FEW010 FEW017CB SCT030 26/25 Q1010 NOSIG
WMKK 300330Z VRB01KT 9000 -RA FEW010 FEW017CB SCT030 26/25 Q1011 NOSIG
WMKK 300300Z VRB01KT 9000 -RA FEW010 FEW017CB SCT030 26/24 Q1011 RETSRA NOSIG
WMKK 300230Z VRB02KT 8000 -TSRA FEW010 FEW017CB SCT030 25/25 Q1011 NOSIG
WMKK 300200Z VRB02KT 7000 -TSRA FEW008 FEW017CB SCT028 24/24 Q1011 RETSRA NOSIG
WMKK 300130Z VRB02KT 4000 TSRA FEW008 FEW017CB SCT028 24/24 Q1011 RETSRA NOSIG
WMKK 300100Z VRB02KT 1500 +TSRA FEW006 FEW016CB SCT028 24/24 Q1011 NOSIG
WMKK 300042Z 25003KT 200V300 1500 +TSRA FEW008 FEW016CB SCT028 24/24 Q1011 NOSIG
WMKK 300030Z VRB03KT 4000 TSRA FEW008 FEW017CB SCT028 24/24 Q1010 NOSIG
WMKK 300017Z 21003KT 150V260 4000 TSRA FEW010 FEW017CB SCT028 24/24 Q1010 TEMPO 3000 TSRA
WMKK 300000Z 25004KT 210V280 9000 -TSRA FEW010 FEW017CB SCT030 25/24 Q1009 TEMPO 5000 TSRA
WMKK 292330Z VRB02KT 9999 TS FEW010 FEW017CB 26/24 Q1009 TEMPO 5000 TSRA
WMKK 292300Z 00000KT 9000 TS FEW010 FEW017CB 26/24 Q1008 NOSIG
WMKK 292230Z VRB02KT 9000 TS FEW010 FEW017CB 26/24 Q1008 NOSIG
WMKK 292207Z VRB02KT 9999 TS FEW010 FEW017CB 26/24 Q1008 NOSIG
WMKK 292200Z VRB02KT 9000 FEW010 FEW017CB 26/24 Q1007 NOSIG
WMKK 292130Z VRB01KT 9000 FEW010 FEW017CB 26/24 Q1008 NOSIG
WMKK 292100Z 00000KT 9000 FEW010 FEW017CB 26/24 Q1008 NOSIG
WMKK 292030Z VRB02KT 9000 FEW010 FEW017CB 26/24 Q1008 NOSIG
WMKK 292000Z VRB02KT 9999 FEW010 FEW017CB 26/24 Q1008 NOSIG
WMKK 291930Z VRB03KT 9999 FEW010 26/24 Q1009 NOSIG
WMKK 291900Z 03003KT 350V060 9000 FEW010 27/24 Q1009 NOSIG
WMKK 291830Z 02004KT 330V060 9000 FEW010 27/24 Q1009 NOSIG
WMKK 291800Z 03003KT 350V060 9000 FEW010 26/25 Q1009 NOSIG
WMKK 291730Z 00000KT 9000 FEW010 27/25 Q1009 NOSIG
WMKK 291700Z VRB02KT 9000 FEW030 26/25 Q1010 NOSIG
WMKK 291630Z 00000KT 9000 FEW030 27/25 Q1010 NOSIG
WMKK 291600Z 00000KT 9000 FEW030 27/25 Q1010 NOSIG
WMKK 291530Z 00000KT 9000 FEW030 27/25 Q1010 NOSIG
WMKK 291500Z VRB02KT 9000 FEW030 27/24 Q1010 NOSIG
WMKK 291430Z 00000KT 9000 FEW030 27/25 Q1010 NOSIG
WMKK 291400Z 00000KT 9000 FEW030 27/25 Q1010 NOSIG
WMKK 291330Z 00000KT 9000 FEW030 27/24 Q1009 NOSIG
WMKK 291300Z 00000KT 9000 FEW030 27/25 Q1009 NOSIG
WMKK 291230Z VRB02KT 9000 FEW030 27/24 Q1008 NOSIG
WMKK 291200Z 24003KT 200V270 9999 FEW030 28/25 Q1008 NOSIG
WMKK 291130Z VRB02KT 9999 FEW030 28/24 Q1008 NOSIG
WMKK 291100Z VRB02KT 9999 FEW030 28/25 Q1007 NOSIG
WMKK 291030Z 00000KT 9999 FEW018 30/24 Q1007 NOSIG
WMKK 291000Z 01003KT 260V050 9999 FEW018 31/23 Q1006 NOSIG
WMKK 290930Z 04003KT 310V120 9999 FEW018 31/24 Q1006 NOSIG
WMKK 290900Z 04003KT 310V120 9999 FEW018 31/23 Q1006 NOSIG
WMKK 290830Z 05004KT 330V140 9999 FEW018 31/24 Q1006 NOSIG
WMKK 290800Z VRB04KT 9999 FEW018 31/24 Q1006 NOSIG
WMKK 290730Z VRB01KT 9999 FEW018 32/24 Q1007 NOSIG
WMKK 290700Z VRB02KT 9999 FEW018 31/23 Q1008 NOSIG
WMKK 290630Z VRB03KT 9999 FEW018 31/23 Q1008 NOSIG
WMKK 290600Z VRB02KT 9999 FEW018 31/23 Q1009 NOSIG
WMKK 290530Z VRB03KT 9999 FEW018 31/23 Q1009 NOSIG
WMKK 290500Z VRB02KT 9999 FEW018 31/23 Q1010 NOSIG
WMKK 290430Z VRB03KT 9999 FEW018 31/23 Q1010 NOSIG
WMKK 290400Z VRB02KT 9999 FEW018 30/22 Q1011 NOSIG
WMKK 290330Z VRB02KT 9999 FEW018 29/22 Q1011 NOSIG
WMKK 290300Z 00000KT 9999 FEW020 28/23 Q1011 NOSIG
WMKK 290230Z VRB02KT 9999 FEW020 27/23 Q1012 NOSIG
WMKK 290200Z VRB01KT 9999 FEW020 26/23 Q1012 NOSIG
WMKK 290130Z 00000KT 9999 FEW010 25/23 Q1011 NOSIG
WMKK 290100Z 04003KT 360V080 9999 FEW006 25/23 Q1011 NOSIG
WMKK 290030Z VRB03KT 9999 FEW006 24/23 Q1011 NOSIG
WMKK 290000Z 06003KT 010V140 9999 FEW003 24/23 Q1010 NOSIG
WMKK 282330Z VRB02KT 9999 FEW001 24/23 Q1010 NOSIG
WMKK 282300Z VRB03KT 9999 FEW001 23/23 Q1009 NOSIG
WMKK 282230Z VRB02KT 9000 FEW001 23/23 Q1009 NOSIG
WMKK 282200Z VRB02KT 9999 FEW001 FEW017CB 23/23 Q1009 NOSIG
WMKK 282130Z 03003KT 350V070 9999 FEW003 FEW017CB 23/23 Q1009 NOSIG
WMKK 282100Z 02004KT 330V060 9000 FEW003 FEW017CB 24/23 Q1009 NOSIG